Keokuk, IA

2:52 AM CDT on August 31, 2016 (GMT -0500)
Keokuk Municipal

Weather History for KEOK - January, 2014

Change the Weather History Date:

Friday, January 17, 2014

  Actual Average Record
Temperature  
Mean Temperature 12 °F -  
Max Temperature 19 °F 34 °F 67 °F (1990)
Min Temperature 6 °F 16 °F -18 °F (1977)
Degree Days  
Heating Degree Days 52    
Moisture  
Dew Point 5 °F    
Average Humidity 71    
Maximum Humidity 85    
Minimum Humidity 58    
Precipitation  
Precipitation 0.00 in - - ()
Sea Level Pressure  
Sea Level Pressure 30.00 in    
Wind  
Wind Speed 13 mph (WNW)    
Max Wind Speed 20 mph    
Max Gust Speed 26 mph    
Visibility 10 miles    
Events Snow    
Averages and records for this station are not official NWS values.
T = Trace of Precipitation, MM = Missing Value Source: NWS Daily Summary

Daily Weather History Graph

Daily Weather History Graph

Search for Another Location

Airport or City:

Trip Planner

Search our weather history database for the weather conditions in past years. The results will help you decide how hot, cold, wet, or windy it might be!

Date:

Astronomy

Jan. 17, 2014 Rise Set
Actual Time 7:26 AM CST 5:06 PM CST
Civil Twilight 6:56 AM CST 5:35 PM CST
Nautical Twilight 6:22 AM CST 6:09 PM CST
Astronomical Twilight 5:50 AM CST 6:42 PM CST
Moon 6:53 PM CST (1/17) 7:53 AM CST (1/17)
Length of Visible Light 10h 39m
Length of Day
9h 40m
Full, 98% of the Moon is Illuminated
Jan 17
Full
Jan 23
Last Quarter
Jan 30
New
Feb 6
First Quarter
Feb 14
Full

Hourly Weather History & Observations

Time (CST) Temp. Windchill Dew Point Humidity Pressure Visibility Wind Dir Wind Speed Gust Speed Precip Events Conditions
12:15 AM 12.2 °F -5.3 °F 3.2 °F 67% 29.90 in 10.0 mi WNW 18.4 mph 26.5 mph N/A Snow Light Snow
12:35 AM 12.2 °F -4.8 °F 5.0 °F 73% 29.90 in 5.0 mi NW 17.3 mph 23.0 mph N/A Snow Light Snow
12:55 AM 10.4 °F -7.2 °F 3.2 °F 73% 29.90 in 10.0 mi WNW 17.3 mph - N/A   Mostly Cloudy
1:15 AM 10.4 °F -4.8 °F 3.2 °F 73% 29.91 in 10.0 mi NW 12.7 mph 19.6 mph N/A   Overcast
1:35 AM 10.4 °F -4.8 °F 5.0 °F 79% 29.91 in 8.0 mi NW 12.7 mph - N/A Snow Light Snow
1:55 AM 10.4 °F -7.2 °F 5.0 °F 79% 29.92 in 3.0 mi NW 17.3 mph 24.2 mph N/A Snow Light Snow
2:15 AM 10.4 °F -6.6 °F 1.4 °F 67% 29.91 in 10.0 mi NW 16.1 mph 24.2 mph N/A   Mostly Cloudy
2:35 AM 10.4 °F -4.8 °F 3.2 °F 73% 29.92 in 8.0 mi NW 12.7 mph - N/A Snow Light Snow
2:55 AM 10.4 °F -7.7 °F 1.4 °F 67% 29.93 in 10.0 mi NW 18.4 mph 25.3 mph N/A Snow Light Snow
3:15 AM 10.4 °F -4.8 °F 1.4 °F 67% 29.93 in 10.0 mi NW 12.7 mph 20.7 mph N/A   Overcast
3:35 AM 10.4 °F -7.2 °F 3.2 °F 73% 29.93 in 5.0 mi NW 17.3 mph 23.0 mph N/A Snow Light Snow
3:55 AM 8.6 °F -10.5 °F -0.4 °F 67% 29.94 in 10.0 mi WNW 19.6 mph 26.5 mph N/A   Mostly Cloudy
4:15 AM 8.6 °F -8.9 °F -0.4 °F 67% 29.94 in 10.0 mi NW 16.1 mph 23.0 mph N/A   Overcast
4:35 AM 8.6 °F -9.5 °F 1.4 °F 73% 29.95 in 10.0 mi NW 17.3 mph - N/A   Overcast
4:55 AM 8.6 °F -7.0 °F 1.4 °F 73% 29.95 in 10.0 mi NW 12.7 mph 23.0 mph N/A   Overcast
5:15 AM 8.6 °F -5.5 °F 1.4 °F 73% 29.95 in - NW 10.4 mph 17.3 mph N/A   Overcast
5:35 AM 8.6 °F -6.3 °F 1.4 °F 73% 29.96 in 10.0 mi WNW 11.5 mph - N/A   Scattered Clouds
5:55 AM 8.6 °F -5.5 °F 1.4 °F 73% 29.96 in 10.0 mi WNW 10.4 mph - N/A   Clear
6:15 AM 6.8 °F -9.3 °F 1.4 °F 79% 29.97 in 10.0 mi WNW 12.7 mph - N/A   Partly Cloudy
6:35 AM 8.6 °F -7.0 °F 1.4 °F 73% 29.97 in 10.0 mi WNW 12.7 mph - N/A   Mostly Cloudy
6:55 AM 8.6 °F -5.5 °F 1.4 °F 73% 29.97 in 10.0 mi WNW 10.4 mph 18.4 mph N/A Snow Light Snow
7:15 AM 8.6 °F -7.7 °F 1.4 °F 73% 29.97 in 10.0 mi WNW 13.8 mph 19.6 mph N/A   Overcast
7:35 AM 8.6 °F -7.0 °F 3.2 °F 79% 29.98 in 10.0 mi WNW 12.7 mph 18.4 mph N/A Snow Light Snow
7:55 AM 10.4 °F -4.8 °F 3.2 °F 73% 29.98 in 10.0 mi WNW 12.7 mph 18.4 mph N/A   Overcast
8:15 AM 10.4 °F -3.3 °F 3.2 °F 73% 29.99 in 10.0 mi WNW 10.4 mph 17.3 mph N/A   Overcast
8:35 AM 10.4 °F -5.4 °F 3.2 °F 73% 30.00 in 10.0 mi WNW 13.8 mph - N/A Snow Light Snow
8:55 AM 10.4 °F -4.1 °F 5.0 °F 79% 30.01 in 8.0 mi WNW 11.5 mph 18.4 mph N/A Snow Light Snow
9:15 AM 10.4 °F -4.1 °F 3.2 °F 73% 30.01 in 10.0 mi WNW 11.5 mph - N/A Snow Light Snow
9:35 AM 12.2 °F -2.5 °F 3.2 °F 67% 30.01 in 10.0 mi WNW 12.7 mph 19.6 mph N/A   Overcast
9:55 AM 12.2 °F -1.0 °F 3.2 °F 67% 30.02 in 10.0 mi WNW 10.4 mph 21.9 mph N/A   Overcast
10:15 AM 12.2 °F -1.8 °F 3.2 °F 67% 30.02 in 10.0 mi WNW 11.5 mph 20.7 mph N/A Snow Light Snow
10:35 AM 12.2 °F -3.1 °F 5.0 °F 73% 30.03 in 10.0 mi WNW 13.8 mph 19.6 mph N/A Snow Light Snow
10:55 AM 12.2 °F -2.5 °F 5.0 °F 73% 30.03 in 10.0 mi NW 12.7 mph 19.6 mph N/A Snow Light Snow
11:15 AM 14.0 °F 0.5 °F 5.0 °F 67% 30.03 in 8.0 mi WNW 11.5 mph 20.7 mph N/A Snow Light Snow
11:35 AM 14.0 °F -0.8 °F 5.0 °F 67% 30.02 in 10.0 mi WNW 13.8 mph - N/A Snow Light Snow
11:55 AM 14.0 °F -1.4 °F 5.0 °F 67% 30.02 in 10.0 mi NW 15.0 mph 21.9 mph N/A   Overcast
12:15 PM 14.0 °F -0.8 °F 6.8 °F 73% 30.02 in 10.0 mi WNW 13.8 mph - N/A   Overcast
12:35 PM 14.0 °F -0.2 °F 5.0 °F 67% 30.02 in 10.0 mi West 12.7 mph 18.4 mph N/A   Overcast
12:55 PM 15.8 °F 1.4 °F 6.8 °F 68% 30.01 in 10.0 mi West 13.8 mph - N/A Snow Light Snow
1:15 PM 15.8 °F 1.4 °F 5.0 °F 62% 30.01 in 10.0 mi West 13.8 mph - N/A Snow Light Snow
1:35 PM 19.4 °F 6.6 °F 6.8 °F 58% 30.02 in 10.0 mi WNW 12.7 mph 20.7 mph N/A   Overcast
1:55 PM 15.8 °F 1.4 °F 6.8 °F 68% 30.02 in 10.0 mi West 13.8 mph 20.7 mph N/A   Overcast
2:15 PM 17.6 °F 4.3 °F 6.8 °F 63% 30.02 in 10.0 mi West 12.7 mph 21.9 mph N/A   Overcast
2:35 PM 19.4 °F 6.6 °F 6.8 °F 58% 30.02 in 10.0 mi WNW 12.7 mph 19.6 mph N/A   Mostly Cloudy
2:55 PM 19.4 °F 5.5 °F 6.8 °F 58% 30.02 in 10.0 mi NW 15.0 mph 21.9 mph N/A   Mostly Cloudy
3:15 PM 19.4 °F 5.0 °F 6.8 °F 58% 30.03 in 10.0 mi West 16.1 mph - N/A   Scattered Clouds
3:35 PM 19.4 °F 6.6 °F 6.8 °F 58% 30.04 in 10.0 mi West 12.7 mph 18.4 mph N/A   Mostly Cloudy
3:55 PM 19.4 °F 6.0 °F 8.6 °F 63% 30.04 in 10.0 mi WNW 13.8 mph - N/A   Mostly Cloudy
4:15 PM 19.4 °F 5.5 °F 8.6 °F 63% 30.05 in 10.0 mi West 15.0 mph 21.9 mph N/A   Mostly Cloudy
4:35 PM 19.4 °F 6.6 °F 8.6 °F 63% 30.05 in 10.0 mi West 12.7 mph - N/A   Overcast
4:55 PM 17.6 °F 6.4 °F 8.6 °F 68% 30.06 in 10.0 mi WNW 9.2 mph 16.1 mph N/A   Overcast
5:15 PM 17.6 °F 7.3 °F 8.6 °F 68% 30.06 in 10.0 mi WNW 8.1 mph - N/A   Mostly Cloudy
5:35 PM 15.8 °F 6.1 °F 8.6 °F 73% 30.06 in 10.0 mi WNW 6.9 mph - N/A   Partly Cloudy
5:55 PM 15.8 °F 8.6 °F 8.6 °F 73% 30.06 in 10.0 mi WNW 4.6 mph - N/A   Clear
6:15 PM 15.8 °F 6.1 °F 8.6 °F 73% 30.06 in 10.0 mi WNW 6.9 mph - N/A   Clear
6:35 PM 15.8 °F 6.1 °F 8.6 °F 73% 30.06 in 10.0 mi West 6.9 mph - N/A   Clear
6:55 PM 14.0 °F 3.9 °F 8.6 °F 79% 30.06 in 10.0 mi West 6.9 mph - N/A   Clear
7:15 PM 15.8 °F 8.6 °F 8.6 °F 73% 30.06 in 10.0 mi West 4.6 mph - N/A   Clear
7:35 PM 15.8 °F 7.2 °F 8.6 °F 73% 30.06 in 10.0 mi West 5.8 mph - N/A   Clear
7:55 PM 15.8 °F 10.2 °F 8.6 °F 73% 30.05 in 10.0 mi West 3.5 mph - N/A   Clear
8:15 PM 14.0 °F 6.5 °F 8.6 °F 79% 30.05 in 10.0 mi WSW 4.6 mph - N/A   Clear
8:35 PM 14.0 °F 5.1 °F 8.6 °F 79% 30.05 in 10.0 mi West 5.8 mph - N/A   Clear
8:55 PM 14.0 °F 3.9 °F 8.6 °F 79% 30.05 in 10.0 mi West 6.9 mph - N/A   Clear
9:15 PM 14.0 °F 5.1 °F 8.6 °F 79% 30.05 in 10.0 mi WSW 5.8 mph - N/A   Clear
9:35 PM 14.0 °F 6.5 °F 8.6 °F 79% 30.05 in 10.0 mi WSW 4.6 mph - N/A   Clear
9:55 PM 14.0 °F 3.9 °F 8.6 °F 79% 30.05 in 10.0 mi WSW 6.9 mph - N/A   Clear
10:15 PM 14.0 °F 3.9 °F 8.6 °F 79% 30.04 in 10.0 mi WSW 6.9 mph - N/A   Clear
10:35 PM 14.0 °F 2.9 °F 8.6 °F 79% 30.03 in 10.0 mi SW 8.1 mph - N/A   Clear
10:55 PM 14.0 °F 3.9 °F 8.6 °F 79% 30.03 in 10.0 mi WSW 6.9 mph - N/A   Clear
11:15 PM 12.2 °F 0.7 °F 8.6 °F 85% 30.03 in 10.0 mi West 8.1 mph - N/A   Clear
11:35 PM 14.0 °F 5.1 °F 8.6 °F 79% 30.01 in 10.0 mi WSW 5.8 mph - N/A   Clear
11:55 PM 14.0 °F 5.1 °F 8.6 °F 79% 30.01 in 10.0 mi SW 5.8 mph - N/A   Clear